createdAt,value
2017-07-08T00:00:14.258Z,0
2017-07-08T00:01:24.630Z,0
2017-07-08T00:02:34.661Z,0
2017-07-08T00:03:45.021Z,0
2017-07-08T00:04:55.385Z,0
2017-07-08T00:06:05.736Z,0
2017-07-08T00:07:16.104Z,0
2017-07-08T00:08:26.498Z,0
2017-07-08T00:09:36.872Z,0
2017-07-08T00:10:47.214Z,0
2017-07-08T00:11:57.606Z,0
2017-07-08T00:13:07.637Z,0
2017-07-08T00:14:18.038Z,0
2017-07-08T00:15:28.388Z,0
2017-07-08T00:16:38.743Z,0
2017-07-08T00:17:49.099Z,0
2017-07-08T00:18:59.147Z,0
2017-07-08T00:20:09.563Z,0
2017-07-08T00:21:19.925Z,0
2017-07-08T00:22:30.326Z,0
2017-07-08T00:23:40.683Z,0
2017-07-08T00:24:51.043Z,0
2017-07-08T00:26:01.127Z,0
2017-07-08T00:27:11.484Z,0
2017-07-08T00:28:21.526Z,0
2017-07-08T00:29:31.244Z,0
2017-07-08T00:30:41.605Z,0
2017-07-08T00:31:52.010Z,0
2017-07-08T00:33:02.369Z,0
2017-07-08T00:34:12.414Z,0
2017-07-08T00:35:22.781Z,0
2017-07-08T00:36:32.806Z,0
2017-07-08T00:37:43.163Z,0
2017-07-08T00:38:53.502Z,0
2017-07-08T00:40:03.870Z,0
2017-07-08T00:41:13.917Z,0
2017-07-08T00:42:23.963Z,0
2017-07-08T00:43:34.045Z,0
2017-07-08T00:44:44.392Z,0
2017-07-08T00:45:54.749Z,0
2017-07-08T00:47:04.781Z,0
2017-07-08T00:48:14.818Z,0
2017-07-08T00:49:24.899Z,0
2017-07-08T00:50:34.946Z,0
2017-07-08T00:51:45.310Z,0
2017-07-08T00:52:55.674Z,0
2017-07-08T00:54:06.029Z,0
2017-07-08T00:55:16.123Z,0
2017-07-08T00:56:26.157Z,0
2017-07-08T00:57:36.498Z,0
2017-07-08T00:58:46.860Z,0
2017-07-08T00:59:57.214Z,0
2017-07-08T01:01:07.313Z,0
2017-07-08T01:02:17.682Z,0
2017-07-08T01:03:28.033Z,0
2017-07-08T01:04:38.085Z,0
2017-07-08T01:05:48.132Z,0
2017-07-08T01:06:58.186Z,0
2017-07-08T01:08:08.552Z,0
2017-07-08T01:09:18.908Z,0
2017-07-08T01:10:28.942Z,0
2017-07-08T01:11:39.300Z,0
2017-07-08T01:12:49.644Z,0
2017-07-08T01:14:00.020Z,0
2017-07-08T01:15:10.381Z,0
2017-07-08T01:16:20.734Z,0
2017-07-08T01:17:31.076Z,0
2017-07-08T01:18:41.491Z,0
2017-07-08T01:19:51.769Z,0
2017-07-08T01:21:02.121Z,0
2017-07-08T01:22:12.480Z,0
2017-07-08T01:23:22.834Z,0
2017-07-08T01:24:33.237Z,0
2017-07-08T01:25:43.598Z,0
2017-07-08T01:26:53.954Z,0
2017-07-08T01:28:03.977Z,0
2017-07-08T01:29:14.337Z,0
2017-07-08T01:30:24.445Z,0
2017-07-08T01:31:34.810Z,0
2017-07-08T01:32:45.171Z,0
2017-07-08T01:33:55.506Z,0
2017-07-08T01:35:05.856Z,0
2017-07-08T01:36:16.201Z,0
2017-07-08T01:37:26.536Z,0
2017-07-08T01:38:36.906Z,0
2017-07-08T01:39:47.263Z,0
2017-07-08T01:40:57.628Z,0
2017-07-08T01:42:08.035Z,0
2017-07-08T01:43:18.065Z,0
2017-07-08T01:44:28.418Z,0
2017-07-08T01:45:38.464Z,0
2017-07-08T01:46:48.817Z,0
2017-07-08T01:47:59.220Z,0
2017-07-08T01:49:08.935Z,0
2017-07-08T01:50:19.280Z,0
2017-07-08T01:51:29.313Z,0
2017-07-08T01:52:39.364Z,0
2017-07-08T01:53:49.446Z,0
2017-07-08T01:54:59.486Z,0
2017-07-08T01:56:09.828Z,0
2017-07-08T01:57:20.186Z,0
2017-07-08T01:58:30.542Z,0
2017-07-08T01:59:40.889Z,0
2017-07-08T02:00:51.246Z,0
2017-07-08T02:02:01.609Z,0
2017-07-08T02:03:11.644Z,0
2017-07-08T02:04:22.020Z,0
2017-07-08T02:05:32.114Z,0
2017-07-08T02:06:42.473Z,0
2017-07-08T02:07:52.805Z,0
2017-07-08T02:09:02.840Z,0
2017-07-08T02:10:13.194Z,0
2017-07-08T02:11:23.562Z,0
2017-07-08T02:12:33.593Z,0
2017-07-08T02:13:43.964Z,0
2017-07-08T02:14:53.998Z,0
2017-07-08T02:16:04.364Z,0
2017-07-08T02:17:14.734Z,0
2017-07-08T02:18:25.101Z,0
2017-07-08T02:19:35.474Z,0
2017-07-08T02:20:45.846Z,0
2017-07-08T02:21:56.208Z,0
2017-07-08T02:23:06.236Z,0
2017-07-08T02:24:16.598Z,4
2017-07-08T02:25:26.323Z,4
2017-07-08T02:26:36.676Z,4
2017-07-08T02:27:46.397Z,0
2017-07-08T02:28:55.897Z,0
2017-07-08T02:30:05.934Z,4
2017-07-08T02:31:16.287Z,4
2017-07-08T02:32:26.645Z,4
2017-07-08T02:33:37.001Z,8
2017-07-08T02:34:47.079Z,4
2017-07-08T02:35:57.434Z,4
2017-07-08T02:37:07.770Z,8
2017-07-08T02:38:18.117Z,12
2017-07-08T02:39:28.466Z,12
2017-07-08T02:40:38.911Z,12
2017-07-08T02:41:48.611Z,12
2017-07-08T02:42:58.639Z,16
2017-07-08T02:44:09.006Z,20
2017-07-08T02:45:19.376Z,24
2017-07-08T02:46:29.436Z,28
2017-07-08T02:47:39.786Z,32
2017-07-08T02:48:50.130Z,36
2017-07-08T02:50:00.551Z,40
2017-07-08T02:51:10.890Z,44
2017-07-08T02:52:20.659Z,52
2017-07-08T02:53:31.002Z,56
2017-07-08T02:54:41.357Z,64
2017-07-08T02:55:51.711Z,72
2017-07-08T02:57:01.757Z,80
2017-07-08T02:58:11.839Z,92
2017-07-08T02:59:21.573Z,100
2017-07-08T03:00:31.922Z,108
2017-07-08T03:01:42.285Z,120
2017-07-08T03:33:32.726Z,672
2017-07-08T03:34:43.072Z,696
2017-07-08T03:35:53.426Z,712
2017-07-08T03:37:03.776Z,720
2017-07-08T03:38:13.818Z,740
2017-07-08T03:39:23.900Z,748
2017-07-08T03:40:34.272Z,780
2017-07-08T03:41:44.627Z,808
2017-07-08T03:42:54.666Z,828
2017-07-08T03:44:05.016Z,840
2017-07-08T03:45:15.418Z,852
2017-07-08T03:46:25.458Z,876
2017-07-08T03:47:35.478Z,892
2017-07-08T03:48:45.826Z,920
2017-07-08T03:49:55.857Z,952
2017-07-08T03:51:06.209Z,992
2017-07-08T03:52:15.924Z,1032
2017-07-08T03:53:26.285Z,1072
2017-07-08T03:54:36.634Z,1136
2017-07-08T03:55:46.996Z,1216
2017-07-08T03:56:57.402Z,1292
2017-07-08T03:58:07.124Z,1372
2017-07-08T03:59:17.479Z,1448
2017-07-08T04:00:27.828Z,1520
2017-07-08T04:01:38.173Z,1596
2017-07-08T04:02:48.593Z,1692
2017-07-08T04:03:58.951Z,1780
2017-07-08T04:05:09.305Z,1880
2017-07-08T04:06:19.669Z,1976
2017-07-08T04:07:30.028Z,2096
2017-07-08T04:08:40.080Z,2244
2017-07-08T04:09:49.792Z,2384
2017-07-08T04:11:00.169Z,2480
2017-07-08T04:12:10.534Z,2552
2017-07-08T04:13:20.895Z,2608
2017-07-08T04:14:30.680Z,2688
2017-07-08T04:15:40.724Z,2732
2017-07-08T04:16:51.116Z,2776
2017-07-08T04:18:01.494Z,2768
2017-07-08T04:19:11.862Z,2844
2017-07-08T04:20:21.941Z,2848
2017-07-08T04:21:32.300Z,2900
2017-07-08T04:22:42.335Z,2960
2017-07-08T04:23:52.678Z,3028
2017-07-08T04:25:03.042Z,8132
2017-07-08T04:26:13.380Z,14368
2017-07-08T04:27:23.737Z,14656
2017-07-08T04:28:34.100Z,16032
2017-07-08T04:29:44.466Z,16288
2017-07-08T04:30:54.513Z,14496
2017-07-08T04:32:04.920Z,15488
2017-07-08T04:33:15.293Z,14080
2017-07-08T04:34:25.642Z,10552
2017-07-08T04:35:35.679Z,15072
2017-07-08T04:36:45.721Z,13984
2017-07-08T04:37:56.125Z,13984
2017-07-08T04:39:06.174Z,15680
2017-07-08T04:40:16.518Z,13280
2017-07-08T04:41:26.556Z,12368
2017-07-08T04:42:36.894Z,13036
2017-07-08T04:43:47.562Z,15712
2017-07-08T04:44:57.278Z,5204
2017-07-08T04:46:07.350Z,5204
2017-07-08T04:47:17.702Z,6716
2017-07-08T04:48:28.055Z,7104
2017-07-08T04:49:38.405Z,8368
2017-07-08T04:50:48.457Z,10008
2017-07-08T04:51:58.814Z,11920
2017-07-08T04:53:09.180Z,14368
2017-07-08T04:54:19.299Z,14080
2017-07-08T04:55:29.660Z,13124
2017-07-08T04:56:39.110Z,14208
2017-07-08T04:57:49.464Z,13692
2017-07-08T04:58:59.831Z,13296
2017-07-08T05:00:09.867Z,13556
2017-07-08T05:01:19.962Z,12992
2017-07-08T05:02:29.685Z,12904
2017-07-08T05:03:39.732Z,12884
2017-07-08T05:04:49.783Z,12964
2017-07-08T05:05:59.835Z,13620
2017-07-08T05:07:09.938Z,13788
2017-07-08T05:08:19.954Z,13688
2017-07-08T05:09:30.309Z,13644
2017-07-08T05:10:40.671Z,13348
2017-07-08T05:11:50.723Z,13348
2017-07-08T05:13:01.151Z,12764
2017-07-08T05:14:11.513Z,13408
2017-07-08T05:15:21.595Z,13776
2017-07-08T05:16:31.952Z,14560
2017-07-08T05:17:42.314Z,15040
2017-07-08T05:18:52.398Z,14944
2017-07-08T05:20:02.766Z,15264
2017-07-08T05:21:13.118Z,15392
2017-07-08T05:22:23.472Z,15264
2017-07-08T05:23:33.880Z,15072
2017-07-08T05:24:44.263Z,15200
2017-07-08T05:25:54.636Z,15232
2017-07-08T05:27:04.998Z,15040
2017-07-08T05:28:15.374Z,14752
2017-07-08T05:29:25.739Z,14720
2017-07-08T05:30:36.158Z,14504
2017-07-08T05:31:46.513Z,14376
2017-07-08T05:32:56.546Z,14720
2017-07-08T05:34:06.585Z,14384
2017-07-08T05:35:16.943Z,14260
2017-07-08T05:36:27.351Z,14180
2017-07-08T05:37:37.080Z,14232
2017-07-08T05:38:47.455Z,14236
2017-07-08T05:39:57.828Z,14088
2017-07-08T05:41:08.193Z,13824
2017-07-08T05:42:18.228Z,14016
2017-07-08T05:43:28.289Z,14140
2017-07-08T05:44:38.659Z,14020
2017-07-08T05:45:49.034Z,14056
2017-07-08T05:46:59.411Z,14288
2017-07-08T05:48:09.459Z,13984
2017-07-08T05:49:19.821Z,13932
2017-07-08T05:50:30.180Z,13928
2017-07-08T05:51:40.564Z,14068
2017-07-08T05:52:50.294Z,14044
2017-07-08T05:54:00.411Z,14012
2017-07-08T05:55:10.449Z,13764
2017-07-08T05:56:20.830Z,13740
2017-07-08T05:57:31.201Z,13444
2017-07-08T05:58:41.552Z,13280
2017-07-08T05:59:51.966Z,13288
2017-07-08T06:01:02.003Z,13248
2017-07-08T06:02:12.363Z,13068
2017-07-08T06:03:22.394Z,13020
2017-07-08T06:04:32.773Z,13060
2017-07-08T06:05:43.138Z,13004
2017-07-08T06:06:53.515Z,13024
2017-07-08T06:08:03.548Z,13040
2017-07-08T06:09:13.890Z,13192
2017-07-08T06:10:24.246Z,12976
2017-07-08T06:11:34.668Z,12888
2017-07-08T06:12:45.029Z,12840
2017-07-08T06:13:55.365Z,12844
2017-07-08T06:15:05.722Z,12840
2017-07-08T06:16:15.769Z,12864
2017-07-08T06:17:26.177Z,12860
2017-07-08T06:18:36.226Z,12704
2017-07-08T06:19:46.276Z,12772
2017-07-08T06:20:56.628Z,12508
2017-07-08T06:22:06.996Z,12384
2017-07-08T06:23:17.340Z,12320
2017-07-08T06:24:27.687Z,12288
2017-07-08T06:25:38.046Z,12196
2017-07-08T06:26:48.406Z,12132
2017-07-08T06:27:58.769Z,11880
2017-07-08T06:29:09.175Z,10020
2017-07-08T06:30:19.514Z,11420
2017-07-08T06:31:29.553Z,11284
2017-07-08T06:32:39.934Z,11092
2017-07-08T06:33:49.967Z,11004
2017-07-08T06:35:00.391Z,10928
2017-07-08T06:36:10.461Z,10840
2017-07-08T06:37:20.822Z,10684
2017-07-08T06:38:31.179Z,10532
2017-07-08T06:39:41.211Z,10464
2017-07-08T06:40:51.257Z,10316
2017-07-08T06:42:01.298Z,10192
2017-07-08T06:43:11.658Z,10068
2017-07-08T06:44:22.012Z,9992
2017-07-08T06:45:32.372Z,9832
2017-07-08T06:46:42.415Z,9736
2017-07-08T06:47:52.822Z,9668
2017-07-08T06:49:03.181Z,9512
2017-07-08T06:50:13.533Z,9336
2017-07-08T06:51:23.889Z,9196
2017-07-08T06:52:34.244Z,9040
2017-07-08T06:53:44.602Z,8924
2017-07-08T06:54:54.648Z,8744
2017-07-08T06:56:04.382Z,8596
2017-07-08T06:57:14.759Z,8452
2017-07-08T06:58:25.123Z,8336
2017-07-08T06:59:35.480Z,8208
2017-07-08T07:00:45.845Z,8056
2017-07-08T07:01:56.209Z,7940
2017-07-08T07:03:06.572Z,7784
2017-07-08T07:04:16.664Z,7660
2017-07-08T07:05:26.695Z,7552
2017-07-08T07:06:37.052Z,7412
2017-07-08T07:07:46.774Z,7264
2017-07-08T07:08:57.130Z,7128
2017-07-08T07:10:07.537Z,7024
2017-07-08T07:11:17.897Z,6868
2017-07-08T07:12:28.267Z,6740
2017-07-08T07:13:38.616Z,6612
2017-07-08T07:14:49.211Z,6472
2017-07-08T07:15:59.569Z,5976
2017-07-08T07:17:09.935Z,5432
2017-07-08T07:18:20.307Z,5284
2017-07-08T07:19:30.345Z,5264
2017-07-08T07:20:40.723Z,5272
2017-07-08T07:21:50.839Z,5256
2017-07-08T07:23:00.871Z,5268
2017-07-08T07:24:10.916Z,5296
2017-07-08T07:25:21.266Z,5320
2017-07-08T07:26:31.621Z,5324
2017-07-08T07:27:41.688Z,5344
2017-07-08T07:28:52.065Z,5340
2017-07-08T07:30:02.109Z,5376
2017-07-08T07:31:12.185Z,5392
2017-07-08T07:32:22.555Z,5420
2017-07-08T07:33:32.644Z,5428
2017-07-08T07:34:42.678Z,5456
2017-07-08T07:35:52.708Z,5440
2017-07-08T07:37:03.061Z,5440
2017-07-08T07:38:13.431Z,5492
2017-07-08T07:39:23.851Z,5496
2017-07-08T07:40:33.892Z,5540
2017-07-08T07:41:43.949Z,5560
2017-07-08T07:42:53.992Z,5600
2017-07-08T07:44:04.353Z,5620
2017-07-08T07:45:14.454Z,5664
2017-07-08T07:46:24.818Z,5700
2017-07-08T07:47:35.182Z,5724
2017-07-08T07:48:45.538Z,5732
2017-07-08T07:49:55.909Z,5796
2017-07-08T07:51:06.269Z,5824
2017-07-08T07:52:16.625Z,5840
2017-07-08T07:53:26.973Z,5896
2017-07-08T07:54:37.012Z,5940
2017-07-08T07:55:47.386Z,5920
2017-07-08T07:56:57.792Z,5936
2017-07-08T07:58:07.827Z,5980
2017-07-08T07:59:18.195Z,5988
2017-07-08T08:00:28.551Z,6032
2017-07-08T08:01:38.603Z,6048
2017-07-08T08:02:48.988Z,6084
2017-07-08T08:03:59.026Z,6116
2017-07-08T08:05:09.401Z,6104
2017-07-08T08:06:19.776Z,6168
2017-07-08T08:07:29.813Z,6180
2017-07-08T08:08:40.220Z,6192
2017-07-08T08:09:50.575Z,6316
2017-07-08T08:11:00.947Z,6364
2017-07-08T08:12:11.295Z,6412
2017-07-08T08:13:21.696Z,6456
2017-07-08T08:14:32.054Z,6476
2017-07-08T08:15:42.435Z,6508
2017-07-08T08:16:52.806Z,6624
2017-07-08T08:18:03.177Z,6680
2017-07-08T08:19:13.220Z,6728
2017-07-08T08:20:23.638Z,6760
2017-07-08T08:21:34.003Z,6740
2017-07-08T08:22:44.057Z,6744
2017-07-08T08:23:54.421Z,6792
2017-07-08T08:25:04.463Z,6812
2017-07-08T08:26:14.871Z,6796
2017-07-08T08:27:24.912Z,6800
2017-07-08T08:28:34.941Z,6812
2017-07-08T08:29:45.306Z,6960
2017-07-08T08:30:55.682Z,6596
2017-07-08T08:32:05.731Z,6968
2017-07-08T08:33:16.087Z,7088
2017-07-08T08:34:26.443Z,7220
2017-07-08T08:35:36.864Z,7160
2017-07-08T08:36:46.902Z,7032
2017-07-08T08:37:56.939Z,4712
2017-07-08T08:39:07.297Z,6752
2017-07-08T08:40:17.336Z,6260
2017-07-08T08:41:27.704Z,6968
2017-07-08T08:42:38.049Z,4636
2017-07-08T08:43:48.406Z,4300
2017-07-08T08:44:58.768Z,4360
2017-07-08T08:46:09.125Z,6392
2017-07-08T08:47:19.497Z,4752
2017-07-08T08:48:29.860Z,6340
2017-07-08T08:49:40.268Z,6616
2017-07-08T08:50:50.678Z,6516
2017-07-08T08:52:00.724Z,4328
2017-07-08T08:53:11.088Z,6564
2017-07-08T08:54:21.452Z,4684
2017-07-08T08:55:31.866Z,6612
2017-07-08T08:56:42.212Z,6800
2017-07-08T08:57:52.588Z,6784
2017-07-08T08:59:02.643Z,6780
2017-07-08T09:00:12.996Z,6820
2017-07-08T09:01:23.405Z,6020
2017-07-08T09:02:33.769Z,7012
2017-07-08T09:03:43.821Z,4780
2017-07-08T09:04:54.215Z,4668
2017-07-08T09:06:04.586Z,4772
2017-07-08T09:07:14.943Z,7148
2017-07-08T09:08:25.324Z,7512
2017-07-08T09:09:35.686Z,7384
2017-07-08T09:10:46.052Z,4848
2017-07-08T09:11:56.414Z,4568
2017-07-08T09:13:06.831Z,4848
2017-07-08T09:14:16.907Z,5248
2017-07-08T09:15:27.285Z,5228
2017-07-08T09:16:37.325Z,7652
2017-07-08T09:17:47.374Z,5828
2017-07-08T09:18:57.096Z,6184
2017-07-08T09:20:07.478Z,6304
2017-07-08T09:21:17.865Z,5756
2017-07-08T09:22:28.216Z,8028
2017-07-08T09:23:38.563Z,8096
2017-07-08T09:24:48.969Z,7032
2017-07-08T09:25:59.351Z,5024
2017-07-08T09:27:09.720Z,4820
2017-07-08T09:28:19.810Z,4920
2017-07-08T09:29:29.890Z,5476
2017-07-08T09:30:39.593Z,8076
2017-07-08T09:31:49.644Z,5204
2017-07-08T09:32:59.356Z,5000
2017-07-08T09:34:09.703Z,5056
2017-07-08T09:35:19.790Z,5780
2017-07-08T09:36:29.211Z,4908
2017-07-08T09:37:39.256Z,4872
2017-07-08T09:38:49.620Z,5336
2017-07-08T09:39:59.996Z,8484
2017-07-08T09:41:10.378Z,8548
2017-07-08T09:42:20.810Z,8324
2017-07-08T09:43:31.218Z,8304
2017-07-08T09:44:41.576Z,8396
2017-07-08T09:45:51.926Z,8548
2017-07-08T09:47:02.278Z,8788
2017-07-08T09:48:12.330Z,8848
2017-07-08T09:49:22.393Z,8556
2017-07-08T09:50:32.463Z,5004
2017-07-08T09:51:42.873Z,5200
2017-07-08T09:52:53.266Z,8220
2017-07-08T09:54:03.298Z,5348
2017-07-08T09:55:13.040Z,6624
2017-07-08T09:56:23.418Z,8572
2017-07-08T09:57:33.791Z,6380
2017-07-08T09:58:44.150Z,5172
2017-07-08T09:59:54.189Z,8544
2017-07-08T10:01:03.973Z,8596
2017-07-08T10:02:14.338Z,5684
2017-07-08T10:03:24.697Z,5848
2017-07-08T10:04:35.068Z,6160
2017-07-08T10:05:45.442Z,5756
2017-07-08T10:06:55.549Z,6848
2017-07-08T10:08:05.918Z,5644
2017-07-08T10:09:16.285Z,5904
2017-07-08T10:10:26.352Z,9172
2017-07-08T10:11:36.720Z,8956
2017-07-08T10:12:47.121Z,9036
2017-07-08T10:13:57.495Z,7700
2017-07-08T10:15:07.847Z,9564
2017-07-08T10:16:17.893Z,9860
2017-07-08T10:17:28.259Z,10032
2017-07-08T10:18:38.363Z,10228
2017-07-08T10:19:48.424Z,10328
2017-07-08T10:20:58.787Z,6636
2017-07-08T10:22:09.156Z,10092
2017-07-08T10:23:19.208Z,10216
2017-07-08T10:24:29.314Z,9924
2017-07-08T10:25:39.378Z,5812
2017-07-08T10:26:49.765Z,5428
2017-07-08T10:28:00.142Z,5424
2017-07-08T10:29:10.518Z,5524
2017-07-08T10:30:20.958Z,9332
2017-07-08T10:31:31.016Z,9824
2017-07-08T10:32:41.064Z,10216
2017-07-08T10:33:51.442Z,10664
2017-07-08T10:35:01.801Z,10680
2017-07-08T10:36:11.578Z,6796
2017-07-08T10:37:21.941Z,9652
2017-07-08T10:38:32.306Z,6248
2017-07-08T10:39:42.686Z,9124
2017-07-08T10:40:53.055Z,9176
2017-07-08T10:42:03.480Z,8972
2017-07-08T10:43:13.219Z,5536
2017-07-08T10:44:23.588Z,7872
2017-07-08T10:45:33.966Z,10064
2017-07-08T10:46:44.355Z,10088
2017-07-08T10:47:54.771Z,6068
2017-07-08T10:49:04.826Z,6576
2017-07-08T10:50:14.558Z,7128
2017-07-08T10:51:24.914Z,11684
2017-07-08T10:52:35.281Z,11712
2017-07-08T10:53:45.691Z,11864
2017-07-08T10:54:56.062Z,11432
2017-07-08T10:56:06.120Z,11216
2017-07-08T10:57:16.502Z,10844
2017-07-08T10:58:26.548Z,10584
2017-07-08T10:59:36.926Z,10500
2017-07-08T11:00:47.311Z,10340
2017-07-08T11:01:57.673Z,10112
2017-07-08T11:03:08.038Z,8528
2017-07-08T11:04:18.440Z,7096
2017-07-08T11:05:28.520Z,6744
2017-07-08T11:06:38.885Z,10396
2017-07-08T11:07:48.942Z,10600
2017-07-08T11:08:58.997Z,11128
2017-07-08T11:10:09.353Z,11400
2017-07-08T11:11:19.710Z,11096
2017-07-08T11:12:30.063Z,10772
2017-07-08T11:13:40.113Z,10412
2017-07-08T11:14:50.166Z,10204
2017-07-08T11:16:00.211Z,10164
2017-07-08T11:17:09.984Z,10232
2017-07-08T11:18:20.352Z,10512
2017-07-08T11:19:30.424Z,10752
2017-07-08T11:20:40.795Z,10772
2017-07-08T11:21:51.168Z,6696
2017-07-08T11:23:01.574Z,10316
2017-07-08T11:24:11.931Z,5808
2017-07-08T11:25:22.313Z,5240
2017-07-08T11:26:32.373Z,5044
2017-07-08T11:27:42.751Z,4952
2017-07-08T11:28:52.499Z,4952
2017-07-08T11:30:02.879Z,4744
2017-07-08T11:31:13.257Z,4400
2017-07-08T11:32:23.325Z,4176
2017-07-08T11:33:33.701Z,4024
2017-07-08T11:34:44.065Z,3996
2017-07-08T11:35:54.430Z,4168
2017-07-08T11:37:04.787Z,4480
2017-07-08T11:38:15.150Z,4908
2017-07-08T11:39:25.532Z,5260
2017-07-08T11:40:35.602Z,5588
2017-07-08T11:41:46.077Z,5612
2017-07-08T11:42:56.182Z,5624
2017-07-08T11:44:06.552Z,5440
2017-07-08T11:45:16.933Z,5076
2017-07-08T11:46:26.973Z,4848
2017-07-08T11:47:37.034Z,4656
2017-07-08T11:48:47.415Z,4524
2017-07-08T11:49:57.785Z,4392
2017-07-08T11:51:07.861Z,4292
2017-07-08T11:52:17.898Z,4220
2017-07-08T11:53:27.636Z,4296
2017-07-08T11:54:37.385Z,4468
2017-07-08T11:55:47.440Z,4608
2017-07-08T11:56:57.548Z,4632
2017-07-08T11:58:07.607Z,4788
2017-07-08T11:59:17.970Z,4784
2017-07-08T12:00:28.337Z,4600
2017-07-08T12:01:38.706Z,4052
2017-07-08T12:02:49.073Z,3360
2017-07-08T12:03:59.175Z,2776
2017-07-08T12:05:09.534Z,2236
2017-07-08T12:06:19.896Z,1828
2017-07-08T12:07:30.262Z,1552
2017-07-08T12:08:40.626Z,1492
2017-07-08T12:09:51.032Z,1648
2017-07-08T12:11:01.379Z,1768
2017-07-08T12:12:11.741Z,1896
2017-07-08T12:13:21.476Z,2072
2017-07-08T12:14:31.837Z,2948
2017-07-08T12:15:41.932Z,4180
2017-07-08T12:16:52.292Z,4956
2017-07-08T12:18:02.676Z,5436
2017-07-08T12:19:13.047Z,5280
2017-07-08T12:20:23.409Z,4988
2017-07-08T12:21:33.824Z,4672
2017-07-08T12:22:44.175Z,4484
2017-07-08T12:23:54.057Z,4268
2017-07-08T12:25:04.120Z,4020
2017-07-08T12:26:14.486Z,3836
2017-07-08T12:27:24.833Z,3852
2017-07-08T12:28:34.920Z,4016
2017-07-08T12:29:44.959Z,4336
2017-07-08T12:30:55.314Z,4772
2017-07-08T12:32:05.671Z,5180
2017-07-08T12:33:15.716Z,5444
2017-07-08T12:34:26.124Z,5624
2017-07-08T12:35:36.168Z,5724
2017-07-08T12:36:45.883Z,5664
2017-07-08T12:37:56.250Z,5220
2017-07-08T12:39:06.292Z,4528
2017-07-08T12:40:16.336Z,3928
2017-07-08T12:41:26.699Z,3520
2017-07-08T12:42:36.741Z,3292
2017-07-08T12:43:47.103Z,3160
2017-07-08T12:44:57.205Z,3132
2017-07-08T12:46:07.544Z,3220
2017-07-08T12:47:17.912Z,3364
2017-07-08T12:48:28.261Z,3500
2017-07-08T12:49:38.613Z,3648
2017-07-08T12:50:48.963Z,3876
2017-07-08T12:51:59.008Z,4228
2017-07-08T12:53:09.039Z,4696
2017-07-08T12:54:19.390Z,5228
2017-07-08T12:55:29.116Z,5756
2017-07-08T12:56:39.729Z,6268
2017-07-08T12:57:50.090Z,6720
2017-07-08T12:59:00.177Z,7200
2017-07-08T13:00:10.208Z,7692
2017-07-08T13:01:20.551Z,8028
2017-07-08T13:02:30.921Z,8148
2017-07-08T13:03:41.279Z,8284
2017-07-08T13:04:51.630Z,8608
2017-07-08T13:06:01.988Z,9120
2017-07-08T13:07:12.031Z,13000
2017-07-08T13:08:22.056Z,13112
2017-07-08T13:09:32.413Z,12676
2017-07-08T13:10:42.125Z,12380
2017-07-08T13:11:52.517Z,12028
2017-07-08T13:13:02.869Z,11620
2017-07-08T13:14:12.911Z,11280
2017-07-08T13:15:22.948Z,10912
2017-07-08T13:16:33.309Z,10564
2017-07-08T13:17:43.352Z,10220
2017-07-08T13:18:53.702Z,9480
2017-07-08T13:20:03.746Z,6620
2017-07-08T13:21:13.780Z,6044
2017-07-08T13:22:24.191Z,6108
2017-07-08T13:23:34.526Z,6216
2017-07-08T13:24:44.580Z,6300
2017-07-08T13:25:54.638Z,6360
2017-07-08T13:27:04.996Z,6516
2017-07-08T13:28:15.350Z,6772
2017-07-08T13:29:25.721Z,6792
2017-07-08T13:30:36.070Z,7660
2017-07-08T13:31:46.426Z,8440
2017-07-08T13:32:56.778Z,7604
2017-07-08T13:34:07.154Z,6280
2017-07-08T13:35:16.875Z,5548
2017-07-08T13:36:26.907Z,5312
2017-07-08T13:37:37.256Z,5292
2017-07-08T13:38:47.618Z,5412
2017-07-08T13:39:57.993Z,5604
2017-07-08T13:41:08.402Z,5772
2017-07-08T13:42:18.452Z,5856
2017-07-08T13:43:28.816Z,5972
2017-07-08T13:44:39.186Z,6224
2017-07-08T13:45:48.928Z,6868
2017-07-08T13:46:59.046Z,6228
2017-07-08T13:48:09.406Z,6148
2017-07-08T13:49:19.774Z,6344
2017-07-08T13:50:29.850Z,6216
2017-07-08T13:51:40.221Z,6224
2017-07-08T13:52:50.568Z,9376
2017-07-08T13:54:00.607Z,8088
2017-07-08T13:55:10.963Z,9416
2017-07-08T13:56:21.018Z,9620
2017-07-08T13:57:31.381Z,7772
2017-07-08T13:58:41.786Z,8560
2017-07-08T13:59:52.153Z,11648
2017-07-08T14:01:02.529Z,11856
2017-07-08T14:02:12.877Z,10816
2017-07-08T14:03:23.317Z,11360
2017-07-08T14:04:33.765Z,10892
2017-07-08T14:05:44.122Z,10192
2017-07-08T14:06:54.490Z,9584
2017-07-08T14:08:04.523Z,9060
2017-07-08T14:09:14.903Z,8760
2017-07-08T14:10:25.313Z,8564
2017-07-08T14:11:35.667Z,8500
2017-07-08T14:12:46.030Z,5612
2017-07-08T14:13:56.400Z,5108
2017-07-08T14:15:06.439Z,4844
2017-07-08T14:16:16.554Z,4884
2017-07-08T14:17:26.624Z,4780
2017-07-08T14:18:36.672Z,4740
2017-07-08T14:19:47.040Z,4732
2017-07-08T14:20:56.771Z,4764
2017-07-08T14:22:07.179Z,4756
2017-07-08T14:23:17.534Z,4688
2017-07-08T14:24:27.880Z,4556
2017-07-08T14:25:38.241Z,4396
2017-07-08T14:26:48.609Z,4236
2017-07-08T14:27:58.721Z,4096
2017-07-08T14:29:09.096Z,3964
2017-07-08T14:30:18.814Z,3868
2017-07-08T14:31:28.546Z,3764
2017-07-08T14:32:38.577Z,3664
2017-07-08T14:33:48.934Z,3604
2017-07-08T14:34:59.353Z,3672
2017-07-08T14:36:09.708Z,3924
2017-07-08T14:37:19.749Z,4312
2017-07-08T14:38:29.866Z,4728
2017-07-08T14:39:40.286Z,5048
2017-07-08T14:40:50.657Z,5104
2017-07-08T14:42:01.027Z,4964
2017-07-08T14:43:11.380Z,4724
2017-07-08T14:44:21.741Z,4460
2017-07-08T14:45:31.519Z,4216
2017-07-08T14:46:41.873Z,4016
2017-07-08T14:47:52.230Z,3904
2017-07-08T14:49:01.971Z,3788
2017-07-08T14:50:12.336Z,3788
2017-07-08T14:51:22.677Z,3944
2017-07-08T14:52:33.044Z,4200
2017-07-08T14:53:43.084Z,4476
2017-07-08T14:54:53.130Z,4680
2017-07-08T14:56:03.522Z,4768
2017-07-08T14:57:13.869Z,4828
2017-07-08T14:58:24.226Z,4936
2017-07-08T14:59:34.594Z,5136
2017-07-08T15:00:44.974Z,5316
2017-07-08T15:01:55.018Z,5320
2017-07-08T15:03:05.414Z,5296
2017-07-08T15:04:15.854Z,5320
2017-07-08T15:05:26.231Z,5360
2017-07-08T15:06:36.603Z,5456
2017-07-08T15:07:46.973Z,5696
2017-07-08T15:08:57.077Z,5816
2017-07-08T15:10:07.435Z,5888
2017-07-08T15:11:17.500Z,5824
2017-07-08T15:12:27.855Z,5704
2017-07-08T15:13:37.900Z,5556
2017-07-08T15:14:47.997Z,5428
2017-07-08T15:15:58.358Z,5424
2017-07-08T15:17:08.719Z,5524
2017-07-08T15:18:19.087Z,5588
2017-07-08T15:19:29.129Z,5640
2017-07-08T15:20:39.181Z,5808
2017-07-08T15:21:49.230Z,5592
2017-07-08T15:22:59.269Z,5628
2017-07-08T15:24:09.642Z,5660
2017-07-08T15:25:19.997Z,5760
2017-07-08T15:26:30.418Z,5708
2017-07-08T15:27:40.766Z,5676
2017-07-08T15:28:51.128Z,5836
2017-07-08T15:30:01.165Z,6312
2017-07-08T15:31:10.901Z,7668
2017-07-08T15:32:21.310Z,8588
2017-07-08T15:33:31.664Z,7332
2017-07-08T15:34:42.047Z,8920
2017-07-08T15:35:52.417Z,8316
2017-07-08T15:37:02.782Z,8360
2017-07-08T15:38:13.301Z,6572
2017-07-08T15:39:23.683Z,6472
2017-07-08T15:40:33.731Z,7636
2017-07-08T15:41:44.086Z,6360
2017-07-08T15:42:54.139Z,6012
2017-07-08T15:44:04.245Z,6044
2017-07-08T15:45:14.596Z,6100
2017-07-08T15:46:24.322Z,7448
2017-07-08T15:47:34.697Z,6776
2017-07-08T15:48:44.427Z,6412
2017-07-08T15:49:54.535Z,6796
2017-07-08T15:51:04.271Z,5732
2017-07-08T15:52:14.637Z,5328
2017-07-08T15:53:25.001Z,6312
2017-07-08T15:54:35.366Z,5184
2017-07-08T15:55:45.773Z,5784
2017-07-08T15:56:55.829Z,4376
2017-07-08T15:58:06.191Z,5724
2017-07-08T15:59:16.549Z,5508
2017-07-08T16:00:26.905Z,5468
2017-07-08T16:01:36.933Z,5372
2017-07-08T16:02:47.294Z,4100
2017-07-08T16:03:57.655Z,5000
2017-07-08T16:05:08.076Z,4908
2017-07-08T16:06:18.123Z,4844
2017-07-08T16:07:28.210Z,4768
2017-07-08T16:08:38.250Z,4624
2017-07-08T16:09:48.685Z,4512
2017-07-08T16:10:58.735Z,4288
2017-07-08T16:12:09.097Z,4056
2017-07-08T16:13:18.870Z,3736
2017-07-08T16:14:29.235Z,3632
2017-07-08T16:15:39.282Z,3460
2017-07-08T16:16:49.644Z,3228